Terminal Aerodrome Forecast
Issued by NWS

Home | Current Version | Previous Version | Text Only | Print | Product List | Glossary On
Versions: 1 2 3 4 5 6 7 8 9 10 11 12 13 14 15
572
FTUS44 KLIX 242048 AAA
TAFMCB
TAF AMD
KMCB 242048Z 2421/2518 36004KT P6SM VCTS SCT035CB BKN060
      TEMPO 2421/2423 VRB15G25KT 2SM +TSRA BKN035CB
     FM250000 15004KT P6SM VCSH BKN035
     FM250300 00000KT P6SM BKN250
      TEMPO 2509/2513 4SM BR=

USA.gov is the U.S. government's official web portal to all federal, state and local government web resources and services.